createdAt,value
2018-08-31T00:01:04.017Z,13.19
2018-08-31T00:03:43.560Z,13.21
2018-08-31T00:06:22.968Z,13.13
2018-08-31T00:09:01.921Z,13.14
2018-08-31T00:11:37.633Z,13.20
2018-08-31T00:14:05.614Z,13.02
2018-08-31T00:16:33.715Z,12.89
2018-08-31T00:19:01.703Z,13.02
2018-08-31T00:21:29.692Z,12.96
2018-08-31T00:24:09.037Z,13.01
2018-08-31T00:26:48.627Z,12.89
2018-08-31T00:29:37.069Z,13.01
2018-08-31T00:35:22.189Z,12.89
2018-08-31T00:38:01.524Z,12.50
2018-08-31T00:42:44.220Z,12.43
2018-08-31T00:45:25.908Z,12.36
2018-08-31T00:47:53.989Z,12.31
2018-08-31T00:50:21.988Z,12.38
2018-08-31T00:52:49.976Z,12.52
2018-08-31T00:55:17.988Z,12.59
2018-08-31T00:57:46.000Z,12.65
2018-08-31T01:00:14.021Z,12.56
2018-08-31T01:02:42.014Z,12.65
2018-08-31T01:05:10.010Z,12.71
2018-08-31T01:07:38.072Z,12.81
2018-08-31T01:10:06.044Z,12.85
2018-08-31T01:12:34.051Z,12.93
2018-08-31T01:15:02.096Z,12.99
2018-08-31T01:17:30.088Z,13.08
2018-08-31T01:19:58.113Z,13.13
2018-08-31T01:22:26.141Z,13.11
2018-08-31T01:24:54.135Z,13.08
2018-08-31T01:27:22.146Z,13.08
2018-08-31T01:29:50.312Z,13.20
2018-08-31T01:32:18.304Z,13.26
2018-08-31T01:34:46.305Z,13.21
2018-08-31T01:37:14.308Z,13.20
2018-08-31T01:39:42.309Z,13.24
2018-08-31T01:42:10.477Z,13.15
2018-08-31T01:44:38.533Z,13.12
2018-08-31T01:47:06.951Z,13.15
2018-08-31T01:49:34.973Z,13.20
2018-08-31T01:52:02.976Z,13.24
2018-08-31T01:54:30.975Z,13.16
2018-08-31T01:56:59.013Z,13.18
2018-08-31T01:59:27.000Z,13.13
2018-08-31T02:01:55.008Z,13.04
2018-08-31T02:04:23.000Z,12.93
2018-08-31T02:06:51.038Z,12.96
2018-08-31T02:09:20.053Z,13.08
2018-08-31T02:11:49.025Z,13.18
2018-08-31T02:14:17.017Z,13.21
2018-08-31T02:16:45.045Z,13.31
2018-08-31T02:19:13.042Z,13.28
2018-08-31T02:21:41.250Z,13.30
2018-08-31T02:24:09.228Z,13.27
2018-08-31T02:26:37.242Z,13.35
2018-08-31T02:29:05.284Z,13.36
2018-08-31T02:31:33.269Z,13.36
2018-08-31T02:34:01.508Z,13.37
2018-08-31T02:36:29.513Z,13.37
2018-08-31T02:38:57.509Z,13.37
2018-08-31T02:41:25.564Z,13.33
2018-08-31T02:43:53.591Z,13.31
2018-08-31T02:46:22.628Z,13.30
2018-08-31T02:48:51.618Z,13.30
2018-08-31T02:51:19.928Z,13.21
2018-08-31T02:53:47.924Z,13.22
2018-08-31T02:56:15.914Z,13.25
2018-08-31T02:58:44.000Z,13.22
2018-08-31T03:01:12.205Z,13.19
2018-08-31T03:03:40.318Z,13.17
2018-08-31T03:06:08.363Z,13.03
2018-08-31T03:08:36.361Z,13.02
2018-08-31T03:11:04.389Z,12.96
2018-08-31T03:13:32.402Z,13.02
2018-08-31T03:16:00.404Z,12.93
2018-08-31T03:18:28.440Z,12.87
2018-08-31T03:20:56.450Z,12.81
2018-08-31T03:23:24.558Z,12.67
2018-08-31T03:25:52.632Z,12.74
2018-08-31T03:28:20.655Z,12.62
2018-08-31T03:30:48.665Z,12.64
2018-08-31T03:33:16.717Z,12.62
2018-08-31T03:35:44.747Z,12.64
2018-08-31T03:38:12.744Z,12.60
2018-08-31T03:40:40.784Z,12.62
2018-08-31T03:43:08.792Z,12.58
2018-08-31T03:45:36.808Z,12.54
2018-08-31T03:48:04.968Z,12.50
2018-08-31T03:50:32.988Z,12.49
2018-08-31T03:53:01.007Z,12.50
2018-08-31T03:55:29.017Z,12.50
2018-08-31T03:57:57.069Z,12.48
2018-08-31T04:00:25.078Z,12.45
2018-08-31T04:02:53.056Z,12.47
2018-08-31T04:05:21.109Z,12.46
2018-08-31T04:07:49.125Z,12.39
2018-08-31T04:10:17.326Z,12.37
2018-08-31T04:12:45.351Z,12.39
2018-08-31T04:15:13.398Z,12.33
2018-08-31T04:17:41.397Z,12.28
2018-08-31T04:20:09.848Z,12.30
2018-08-31T04:22:37.929Z,12.22
2018-08-31T04:25:05.920Z,12.21
2018-08-31T04:27:33.964Z,12.18
2018-08-31T04:30:01.981Z,12.04
2018-08-31T04:32:29.974Z,11.90
2018-08-31T04:34:57.980Z,11.89
2018-08-31T04:37:25.998Z,11.98
2018-08-31T04:39:54.013Z,12.00
2018-08-31T04:42:22.036Z,12.04
2018-08-31T04:44:50.053Z,12.02
2018-08-31T04:47:18.066Z,11.99
2018-08-31T04:49:46.099Z,12.02
2018-08-31T04:52:14.126Z,12.05
2018-08-31T04:54:42.120Z,12.05
2018-08-31T04:57:10.172Z,12.11
2018-08-31T04:59:38.186Z,12.17
2018-08-31T05:02:06.352Z,12.29
2018-08-31T05:04:34.358Z,12.31
2018-08-31T05:07:02.360Z,12.43
2018-08-31T05:09:30.370Z,12.64
2018-08-31T05:11:58.432Z,12.97
2018-08-31T05:14:26.499Z,13.44
2018-08-31T05:16:54.563Z,13.93
2018-08-31T05:19:22.593Z,14.38
2018-08-31T05:21:50.664Z,15.01
2018-08-31T05:24:18.665Z,15.48
2018-08-31T05:26:46.706Z,15.98
2018-08-31T05:29:14.729Z,16.38
2018-08-31T05:31:42.785Z,16.72
2018-08-31T05:34:10.777Z,17.16
2018-08-31T05:36:38.855Z,17.73
2018-08-31T05:39:09.228Z,18.45
2018-08-31T05:41:37.244Z,18.83
2018-08-31T05:44:05.296Z,19.28
2018-08-31T05:46:33.324Z,19.99
2018-08-31T05:49:01.329Z,20.44
2018-08-31T05:51:29.366Z,21.27
2018-08-31T05:53:57.369Z,21.73
2018-08-31T05:56:25.400Z,22.28
2018-08-31T05:58:53.400Z,23.11
2018-08-31T06:01:21.408Z,23.97
2018-08-31T06:03:49.402Z,24.60
2018-08-31T06:06:17.429Z,25.25
2018-08-31T06:08:45.442Z,25.68
2018-08-31T06:11:13.464Z,26.45
2018-08-31T06:13:41.564Z,26.34
2018-08-31T06:16:09.701Z,25.72
2018-08-31T06:18:37.718Z,24.97
2018-08-31T06:21:05.960Z,24.80
2018-08-31T06:23:34.154Z,25.42
2018-08-31T06:26:02.797Z,26.12
2018-08-31T06:28:31.009Z,26.43
2018-08-31T06:30:59.049Z,26.27
2018-08-31T06:33:27.134Z,26.51
2018-08-31T06:35:55.781Z,26.25
2018-08-31T06:38:23.821Z,25.75
2018-08-31T06:40:51.867Z,25.14
2018-08-31T06:43:19.872Z,24.35
2018-08-31T06:45:47.918Z,24.18
2018-08-31T06:48:15.933Z,24.04
2018-08-31T06:50:44.162Z,23.99
2018-08-31T06:53:12.189Z,24.80
2018-08-31T06:55:40.225Z,26.10
2018-08-31T06:58:08.256Z,27.34
2018-08-31T07:00:36.253Z,28.37
2018-08-31T07:03:04.300Z,28.86
2018-08-31T07:05:32.543Z,29.52
2018-08-31T07:08:00.588Z,30.13
2018-08-31T07:10:28.630Z,29.88
2018-08-31T07:12:56.664Z,29.49
2018-08-31T07:15:24.689Z,28.84
2018-08-31T07:17:52.704Z,28.38
2018-08-31T07:20:20.744Z,27.89
2018-08-31T07:22:48.741Z,27.54
2018-08-31T07:25:16.779Z,27.36
2018-08-31T07:27:44.797Z,27.15
2018-08-31T07:30:12.829Z,27.30
2018-08-31T07:32:40.840Z,27.55
2018-08-31T07:35:08.881Z,27.56
2018-08-31T07:37:36.938Z,27.79
2018-08-31T07:40:05.564Z,29.11
2018-08-31T07:42:33.657Z,29.11
2018-08-31T07:45:01.757Z,29.50
2018-08-31T07:47:29.816Z,29.53
2018-08-31T07:49:57.876Z,30.50
2018-08-31T07:52:25.935Z,30.62
2018-08-31T07:54:53.961Z,31.37
2018-08-31T07:57:22.019Z,32.21
2018-08-31T07:59:50.035Z,32.90
2018-08-31T08:02:18.037Z,33.47
2018-08-31T08:04:46.196Z,33.64
2018-08-31T08:07:14.258Z,33.59
2018-08-31T08:09:42.265Z,32.72
2018-08-31T08:12:10.309Z,32.89
2018-08-31T08:14:38.422Z,31.93
2018-08-31T08:17:06.429Z,31.38
2018-08-31T08:19:34.466Z,31.24
2018-08-31T08:22:02.469Z,31.19
2018-08-31T08:24:30.488Z,31.33
2018-08-31T08:26:58.638Z,31.76
2018-08-31T08:29:27.483Z,32.24
2018-08-31T08:31:55.544Z,32.08
2018-08-31T08:34:23.641Z,32.74
2018-08-31T08:36:51.644Z,33.33
2018-08-31T08:39:19.692Z,33.25
2018-08-31T08:41:47.718Z,33.53
2018-08-31T08:44:15.766Z,33.22
2018-08-31T08:46:43.770Z,31.61
2018-08-31T08:49:11.820Z,30.82
2018-08-31T08:51:39.851Z,30.18
2018-08-31T08:54:08.022Z,29.27
2018-08-31T08:56:36.056Z,29.29
2018-08-31T08:59:04.148Z,29.44
2018-08-31T09:01:32.165Z,29.06
2018-08-31T09:04:00.357Z,29.12
2018-08-31T09:06:28.358Z,28.21
2018-08-31T09:08:56.441Z,27.39
2018-08-31T09:11:24.444Z,26.47
2018-08-31T09:13:52.488Z,25.88
2018-08-31T09:16:20.506Z,24.65
2018-08-31T09:18:48.662Z,23.93
2018-08-31T09:21:16.677Z,23.50
2018-08-31T09:23:44.701Z,23.15
2018-08-31T09:26:14.073Z,22.73
2018-08-31T09:28:42.288Z,22.38
2018-08-31T09:31:13.087Z,22.04
2018-08-31T09:33:41.136Z,21.98
2018-08-31T09:36:09.417Z,21.81
2018-08-31T09:38:37.456Z,21.75
2018-08-31T09:41:05.956Z,21.48
2018-08-31T09:43:34.096Z,21.20
2018-08-31T09:46:02.240Z,21.30
2018-08-31T09:48:30.581Z,21.38
2018-08-31T09:50:58.844Z,21.55
2018-08-31T09:53:27.387Z,21.79
2018-08-31T09:55:55.636Z,21.87
2018-08-31T09:58:23.741Z,22.08
2018-08-31T10:00:57.061Z,22.32
2018-08-31T10:03:25.950Z,22.46
2018-08-31T10:05:55.016Z,22.42
2018-08-31T10:08:24.893Z,22.54
2018-08-31T10:10:53.090Z,22.34
2018-08-31T10:13:21.181Z,22.07
2018-08-31T10:15:49.205Z,22.08
2018-08-31T10:18:17.252Z,22.31
2018-08-31T10:20:45.300Z,22.39
2018-08-31T10:23:13.327Z,22.13
2018-08-31T10:25:41.361Z,22.15
2018-08-31T10:28:09.529Z,22.09
2018-08-31T10:30:37.561Z,22.00
2018-08-31T10:33:05.664Z,22.25
2018-08-31T10:35:34.140Z,22.28
2018-08-31T10:38:02.328Z,22.57
2018-08-31T10:40:30.362Z,22.83
2018-08-31T10:42:58.412Z,23.07
2018-08-31T10:45:27.620Z,23.37
2018-08-31T10:47:55.720Z,23.58
2018-08-31T10:50:23.746Z,23.47
2018-08-31T10:52:51.916Z,23.71
2018-08-31T10:55:19.980Z,23.99
2018-08-31T10:57:47.976Z,24.10
2018-08-31T11:00:15.993Z,24.12
2018-08-31T11:02:44.056Z,24.30
2018-08-31T11:05:12.122Z,24.44
2018-08-31T11:07:40.152Z,24.60
2018-08-31T11:10:08.176Z,24.42
2018-08-31T11:12:36.346Z,24.42
2018-08-31T11:15:05.508Z,24.34
2018-08-31T11:17:33.648Z,24.17
2018-08-31T11:20:01.782Z,23.99
2018-08-31T11:22:29.828Z,23.56
2018-08-31T11:24:57.976Z,23.66
2018-08-31T11:27:26.021Z,24.25
2018-08-31T11:29:54.074Z,23.71
2018-08-31T11:32:22.316Z,24.20
2018-08-31T11:34:50.401Z,24.36
2018-08-31T11:39:50.988Z,24.71
2018-08-31T11:42:19.020Z,25.08
2018-08-31T11:44:47.060Z,25.10
2018-08-31T11:47:15.092Z,25.26
2018-08-31T11:49:43.127Z,25.29
2018-08-31T11:52:11.129Z,25.44
2018-08-31T11:54:39.141Z,25.34
2018-08-31T11:57:07.230Z,25.28
2018-08-31T11:59:35.289Z,25.01
2018-08-31T12:02:03.531Z,24.62
2018-08-31T12:04:31.592Z,24.08
2018-08-31T12:06:59.629Z,24.04
2018-08-31T12:09:27.649Z,24.15
2018-08-31T12:11:55.697Z,23.80
2018-08-31T12:14:23.789Z,23.96
2018-08-31T12:16:51.837Z,24.10
2018-08-31T12:19:19.865Z,23.89
2018-08-31T12:21:47.892Z,23.75
2018-08-31T12:24:15.901Z,23.71
2018-08-31T12:26:43.932Z,23.81
2018-08-31T12:29:11.995Z,23.11
2018-08-31T12:31:40.037Z,23.42
2018-08-31T12:34:08.097Z,23.43
2018-08-31T12:36:36.110Z,23.92
2018-08-31T12:39:05.878Z,23.90
2018-08-31T12:41:33.953Z,24.00
2018-08-31T12:44:02.157Z,23.94
2018-08-31T12:46:30.161Z,23.76
2018-08-31T12:48:58.181Z,23.41
2018-08-31T12:51:26.309Z,23.14
2018-08-31T12:53:54.338Z,23.43
2018-08-31T12:56:22.525Z,23.82
2018-08-31T12:58:50.546Z,24.14
2018-08-31T13:01:18.593Z,24.63
2018-08-31T13:03:46.709Z,25.09
2018-08-31T13:06:14.741Z,25.24
2018-08-31T13:08:42.805Z,25.39
2018-08-31T13:11:10.919Z,25.45
2018-08-31T13:13:39.016Z,24.73
2018-08-31T13:16:07.056Z,24.46
2018-08-31T13:18:35.118Z,24.71
2018-08-31T13:21:03.281Z,23.93
2018-08-31T13:23:31.315Z,23.74
2018-08-31T13:25:59.445Z,23.63
2018-08-31T13:28:27.446Z,23.77
2018-08-31T13:30:55.662Z,23.86
2018-08-31T13:33:23.873Z,23.80
2018-08-31T13:35:51.921Z,23.69
2018-08-31T13:38:20.094Z,23.34
2018-08-31T13:40:48.249Z,23.34
2018-08-31T13:43:16.551Z,23.46
2018-08-31T13:45:44.857Z,23.34
2018-08-31T13:48:12.881Z,23.60
2018-08-31T13:50:40.901Z,23.36
2018-08-31T13:53:08.932Z,23.06
2018-08-31T13:55:36.924Z,23.17
2018-08-31T13:58:04.969Z,23.39
2018-08-31T14:00:33.373Z,23.17
2018-08-31T14:03:01.449Z,23.04
2018-08-31T14:05:29.471Z,23.36
2018-08-31T14:07:57.476Z,23.46
2018-08-31T14:10:25.516Z,23.28
2018-08-31T14:12:53.683Z,23.19
2018-08-31T14:15:21.713Z,23.18
2018-08-31T14:17:49.748Z,23.15
2018-08-31T14:20:17.814Z,22.39
2018-08-31T14:22:45.886Z,22.25
2018-08-31T14:25:13.875Z,22.43
2018-08-31T14:27:42.005Z,22.80
2018-08-31T14:30:10.018Z,22.99
2018-08-31T14:32:38.055Z,23.25
2018-08-31T14:35:06.081Z,23.14
2018-08-31T14:37:34.379Z,23.18
2018-08-31T14:40:02.458Z,23.32
2018-08-31T14:42:30.521Z,23.16
2018-08-31T14:44:58.541Z,22.94
2018-08-31T14:47:26.556Z,22.82
2018-08-31T14:49:54.606Z,22.86
2018-08-31T14:52:22.607Z,22.55
2018-08-31T14:54:50.598Z,22.60
2018-08-31T14:57:18.616Z,22.49
2018-08-31T14:59:46.671Z,22.46
2018-08-31T15:02:14.732Z,22.41
2018-08-31T15:04:42.774Z,22.54
2018-08-31T15:07:10.783Z,22.53
2018-08-31T15:09:38.780Z,22.43
2018-08-31T15:12:06.816Z,22.30
2018-08-31T15:14:34.882Z,22.12
2018-08-31T15:17:03.024Z,21.92
2018-08-31T15:19:31.031Z,22.14
2018-08-31T15:21:59.037Z,22.12
2018-08-31T15:24:27.043Z,22.10
2018-08-31T15:26:55.208Z,22.08
2018-08-31T15:29:23.200Z,22.08
2018-08-31T15:31:51.182Z,21.85
2018-08-31T15:34:19.184Z,21.72
2018-08-31T15:36:47.207Z,21.66
2018-08-31T15:39:15.222Z,21.55
2018-08-31T15:41:43.266Z,21.58
2018-08-31T15:44:11.497Z,21.66
2018-08-31T15:46:39.480Z,21.55
2018-08-31T15:49:07.538Z,21.55
2018-08-31T15:51:35.526Z,21.47
2018-08-31T15:54:03.599Z,21.52
2018-08-31T15:56:31.581Z,21.48
2018-08-31T15:58:59.650Z,21.52
2018-08-31T16:01:27.656Z,21.57
2018-08-31T16:03:56.145Z,21.60
2018-08-31T16:06:24.169Z,21.63
2018-08-31T16:08:52.193Z,21.61
2018-08-31T16:11:20.228Z,21.32
2018-08-31T16:13:48.255Z,21.32
2018-08-31T16:16:16.256Z,21.32
2018-08-31T16:18:44.410Z,21.33
2018-08-31T16:21:12.379Z,21.32
2018-08-31T16:23:40.410Z,21.45
2018-08-31T16:26:08.452Z,21.60
2018-08-31T16:28:36.496Z,21.47
2018-08-31T16:31:04.505Z,21.38
2018-08-31T16:33:32.585Z,21.41
2018-08-31T16:36:00.901Z,21.49
2018-08-31T16:38:28.908Z,21.46
2018-08-31T16:40:56.914Z,21.49
2018-08-31T16:43:24.932Z,21.44
2018-08-31T16:45:52.949Z,21.47
2018-08-31T16:48:20.965Z,21.44
2018-08-31T16:50:48.970Z,21.41
2018-08-31T16:53:16.994Z,21.24
2018-08-31T16:55:45.030Z,21.32
2018-08-31T16:58:13.095Z,21.38
2018-08-31T17:00:41.162Z,21.43
2018-08-31T17:03:09.204Z,21.51
2018-08-31T17:05:37.222Z,21.29
2018-08-31T17:08:05.232Z,21.10
2018-08-31T17:10:33.282Z,21.17
2018-08-31T17:13:01.289Z,20.85
2018-08-31T17:15:29.293Z,20.98
2018-08-31T17:17:57.474Z,20.94
2018-08-31T17:20:25.506Z,21.01
2018-08-31T17:22:53.512Z,21.12
2018-08-31T17:25:21.564Z,21.07
2018-08-31T17:27:54.923Z,21.19
2018-08-31T17:30:23.686Z,21.06
2018-08-31T17:32:57.180Z,20.99
2018-08-31T17:35:30.790Z,21.03
2018-08-31T17:38:00.172Z,21.02
2018-08-31T17:40:28.287Z,20.99
2018-08-31T17:42:56.458Z,20.91
2018-08-31T17:45:24.482Z,20.88
2018-08-31T17:47:52.888Z,20.91
2018-08-31T17:50:20.904Z,20.82
2018-08-31T17:52:48.966Z,20.82
2018-08-31T17:55:17.005Z,20.79
2018-08-31T17:57:45.035Z,20.65
2018-08-31T18:00:13.299Z,20.47
2018-08-31T18:02:41.421Z,20.38
2018-08-31T18:05:09.489Z,20.23
2018-08-31T18:07:37.549Z,20.09
2018-08-31T18:10:06.184Z,19.89
2018-08-31T18:12:34.200Z,19.68
2018-08-31T18:15:02.204Z,19.65
2018-08-31T18:17:30.217Z,19.59
2018-08-31T18:19:58.345Z,19.42
2018-08-31T18:22:26.304Z,19.30
2018-08-31T18:24:54.343Z,19.21
2018-08-31T18:27:22.348Z,19.05
2018-08-31T18:29:50.462Z,18.95
2018-08-31T18:32:18.476Z,18.98
2018-08-31T18:34:46.553Z,18.79
2018-08-31T18:37:14.576Z,18.57
2018-08-31T18:39:42.606Z,18.27
2018-08-31T18:42:10.608Z,18.07
2018-08-31T18:44:38.608Z,18.10
2018-08-31T18:47:06.645Z,17.86
2018-08-31T18:49:34.799Z,17.75
2018-08-31T18:52:02.865Z,17.92
2018-08-31T18:54:30.853Z,17.99
2018-08-31T18:56:58.897Z,17.95
2018-08-31T18:59:26.905Z,17.89
2018-08-31T19:01:54.964Z,17.77
2018-08-31T19:04:23.035Z,17.77
2018-08-31T19:06:51.057Z,17.69
2018-08-31T19:09:19.084Z,17.62
2018-08-31T19:11:47.097Z,17.56
2018-08-31T19:14:15.113Z,17.47
2018-08-31T19:16:43.152Z,17.52
2018-08-31T19:19:11.159Z,17.42
2018-08-31T19:21:39.180Z,17.50
2018-08-31T19:24:07.209Z,17.46
2018-08-31T19:26:35.268Z,17.36
2018-08-31T19:29:03.329Z,17.33
2018-08-31T19:31:31.460Z,17.22
2018-08-31T19:33:59.411Z,17.20
2018-08-31T19:36:27.413Z,17.15
2018-08-31T19:38:55.489Z,17.20
2018-08-31T19:41:23.522Z,17.18
2018-08-31T19:43:51.505Z,17.18
2018-08-31T19:46:19.577Z,17.11
2018-08-31T19:48:47.750Z,17.06
2018-08-31T19:51:15.788Z,16.97
2018-08-31T19:53:44.115Z,16.93
2018-08-31T19:56:12.092Z,16.88
2018-08-31T19:58:40.161Z,16.89
2018-08-31T20:01:08.189Z,16.84
2018-08-31T20:03:36.193Z,16.75
2018-08-31T20:06:04.218Z,16.62
2018-08-31T20:08:32.237Z,16.64
2018-08-31T20:11:00.315Z,16.61
2018-08-31T20:13:28.484Z,16.47
2018-08-31T20:15:56.536Z,16.41
2018-08-31T20:18:24.564Z,16.33
2018-08-31T20:20:52.676Z,16.27
2018-08-31T20:23:20.753Z,16.32
2018-08-31T20:25:48.764Z,16.32
2018-08-31T20:28:16.840Z,16.29
2018-08-31T20:30:44.893Z,16.25
2018-08-31T20:33:12.884Z,16.25
2018-08-31T20:35:40.908Z,16.21
2018-08-31T20:38:08.913Z,16.19
2018-08-31T20:40:36.918Z,16.18
2018-08-31T20:43:05.044Z,16.11
2018-08-31T20:45:33.016Z,16.10
2018-08-31T20:48:01.042Z,16.07
2018-08-31T20:50:29.188Z,16.06
2018-08-31T20:52:57.254Z,15.99
2018-08-31T20:55:32.002Z,15.98
2018-08-31T20:58:01.241Z,15.92
2018-08-31T21:00:29.293Z,15.89
2018-08-31T21:02:57.365Z,15.73
2018-08-31T21:05:25.373Z,15.66
2018-08-31T21:07:53.456Z,15.65
2018-08-31T21:10:21.505Z,15.57
2018-08-31T21:12:49.561Z,15.60
2018-08-31T21:15:17.624Z,15.51
2018-08-31T21:17:45.760Z,15.52
2018-08-31T21:20:13.776Z,15.48
2018-08-31T21:22:41.833Z,15.45
2018-08-31T21:25:09.905Z,15.49
2018-08-31T21:27:37.890Z,15.40
2018-08-31T21:30:05.972Z,15.38
2018-08-31T21:32:34.053Z,15.38
2018-08-31T21:35:02.716Z,15.22
2018-08-31T21:37:30.736Z,15.21
2018-08-31T21:39:58.712Z,15.15
2018-08-31T21:42:26.794Z,15.13
2018-08-31T21:44:56.430Z,15.12
2018-08-31T21:47:24.500Z,15.15
2018-08-31T21:49:52.488Z,15.09
2018-08-31T21:52:20.520Z,15.01
2018-08-31T21:54:48.544Z,14.87
2018-08-31T21:57:16.646Z,14.86
2018-08-31T21:59:44.803Z,14.75
2018-08-31T22:02:12.876Z,14.75
2018-08-31T22:04:40.918Z,14.69
2018-08-31T22:07:09.016Z,14.73
2018-08-31T22:09:37.025Z,14.69
2018-08-31T22:12:05.086Z,14.59
2018-08-31T22:14:33.340Z,14.65
2018-08-31T22:17:01.366Z,14.60
2018-08-31T22:19:29.381Z,14.53
2018-08-31T22:21:57.415Z,14.54
2018-08-31T22:24:25.405Z,14.52
2018-08-31T22:26:53.527Z,14.45
2018-08-31T22:29:21.529Z,14.37
2018-08-31T22:31:49.565Z,14.39
2018-08-31T22:34:17.642Z,14.31
2018-08-31T22:36:45.629Z,14.35
2018-08-31T22:39:13.625Z,14.34
2018-08-31T22:41:41.620Z,14.17
2018-08-31T22:44:09.621Z,14.19
2018-08-31T22:46:37.660Z,14.14
2018-08-31T22:49:05.802Z,14.02
2018-08-31T22:51:33.809Z,13.97
2018-08-31T22:54:01.833Z,13.99
2018-08-31T22:56:29.832Z,13.97
2018-08-31T22:58:57.839Z,13.97
2018-08-31T23:01:26.036Z,13.88
2018-08-31T23:03:54.056Z,13.89
2018-08-31T23:06:22.061Z,13.83
2018-08-31T23:08:50.072Z,13.82
2018-08-31T23:11:18.078Z,13.74
2018-08-31T23:13:46.133Z,13.64
2018-08-31T23:16:14.100Z,13.65
2018-08-31T23:18:42.148Z,13.64
2018-08-31T23:21:10.444Z,13.68
2018-08-31T23:23:43.885Z,13.64
2018-08-31T23:26:11.923Z,13.67
2018-08-31T23:28:39.912Z,13.61
2018-08-31T23:31:07.973Z,13.60
2018-08-31T23:33:35.986Z,13.63
2018-08-31T23:36:04.020Z,13.60
2018-08-31T23:38:32.025Z,13.60
2018-08-31T23:41:00.268Z,13.55
2018-08-31T23:43:28.283Z,13.55
2018-08-31T23:45:56.389Z,13.53
2018-08-31T23:48:24.386Z,13.51
2018-08-31T23:50:52.372Z,13.47
2018-08-31T23:53:20.369Z,13.47
2018-08-31T23:55:48.397Z,13.37
2018-08-31T23:58:16.396Z,13.34
